Time;durP1;ratioP1;P1;durP2;ratioP2;P2;SDS_P1;SDS_P2;PMS_P1;PMS_P2;Temp;Humidity;BMP_temperature;BMP_pressure;BME280_temperature;BME280_humidity;BME280_pressure;Samples;Min_cycle;Max_cycle;Signal;HPM_P1;HPM_P2
2022/09/21 00:01:41;;;;;;;;;;;;;;;10.78;63.27;96086.59;5071744;28;20407;-71
2022/09/21 00:04:07;;;;;;;;;;;;;;;10.64;64.13;96088.31;5087146;28;20013;-71
2022/09/21 00:06:33;;;;;;;;;;;;;;;10.74;63.34;96088.22;5079908;28;20044;-71
2022/09/21 00:08:58;;;;;;;;;;;;;;;10.70;63.55;96087.22;5070605;28;20017;-71
2022/09/21 00:11:25;;;;;;;;;;;;;;;10.70;63.81;96092.53;5077282;28;20013;-71
2022/09/21 00:13:53;;;;;;;;;;;;;;;10.64;64.03;96088.31;5089906;28;20016;-71
2022/09/21 00:16:18;;;;;;;;;;;;;;;10.49;64.23;96085.81;5089592;28;20032;-71
2022/09/21 00:18:43;;;;;;;;;;;;;;;10.39;64.15;96090.16;5090336;28;20032;-71
2022/09/21 00:21:10;;;;;;;;;;;;;;;10.49;64.34;96088.47;5088336;28;20066;-70
2022/09/21 00:23:35;;;;;;;;;;;;;;;10.56;64.35;96092.41;5092002;28;20376;-71
2022/09/21 00:26:08;;;;;;;;;;;;;;;10.54;64.01;96088.41;5086063;28;20023;-70
2022/09/21 00:28:33;;;;;;;;;;;;;;;10.54;63.73;96091.06;5071013;28;20009;-72
2022/09/21 00:31:06;;;;;;;;;;;;;;;10.56;62.98;96091.59;5070851;28;20012;-71
2022/09/21 00:33:31;;;;;;;;;;;;;;;10.54;63.10;96085.75;5071432;28;20020;-71
2022/09/21 00:36:01;;;;;;;;;;;;;;;10.51;63.19;96089.00;5086159;28;20088;-71
2022/09/21 00:38:26;;;;;;;;;;;;;;;10.50;63.05;96084.75;5069949;28;20096;-71
2022/09/21 00:40:51;;;;;;;;;;;;;;;10.49;63.44;96091.91;5086979;28;20516;-71
2022/09/21 00:43:17;;;;;;;;;;;;;;;10.46;62.55;96087.16;5077272;28;20009;-71
2022/09/21 00:45:43;;;;;;;;;;;;;;;10.46;63.03;96086.38;5074045;28;20009;-71
2022/09/21 00:48:09;;;;;;;;;;;;;;;10.44;62.71;96091.16;5071569;28;20347;-71
2022/09/21 00:50:35;;;;;;;;;;;;;;;10.41;63.31;96082.69;5069101;28;20020;-71
2022/09/21 00:53:03;;;;;;;;;;;;;;;10.38;63.22;96091.22;5081036;28;20056;-71
2022/09/21 00:55:30;;;;;;;;;;;;;;;10.36;62.81;96093.38;5084976;28;20040;-71
2022/09/21 00:58:00;;;;;;;;;;;;;;;10.35;62.99;96091.00;5073339;28;20096;-71
2022/09/21 01:00:25;;;;;;;;;;;;;;;10.33;63.08;96093.91;5087981;28;20545;-71
2022/09/21 01:02:51;;;;;;;;;;;;;;;10.38;62.86;96093.88;5072434;28;20013;-71
2022/09/21 01:05:16;;;;;;;;;;;;;;;10.39;63.33;96092.81;5089653;28;20060;-71
2022/09/21 01:07:46;;;;;;;;;;;;;;;10.39;62.54;96092.81;5091426;28;20381;-72
2022/09/21 01:10:13;;;;;;;;;;;;;;;10.36;62.19;96084.59;5083642;28;20028;-71
2022/09/21 01:12:39;;;;;;;;;;;;;;;10.31;62.44;96088.09;5089949;28;20020;-71
2022/09/21 01:15:13;;;;;;;;;;;;;;;10.28;62.66;96095.81;5070651;28;20013;-72
2022/09/21 01:17:53;;;;;;;;;;;;;;;10.23;62.67;96082.53;5071088;28;20487;-71
2022/09/21 01:20:33;;;;;;;;;;;;;;;10.19;62.30;96084.97;5080952;28;20017;-71
2022/09/21 01:23:07;;;;;;;;;;;;;;;10.15;62.25;96094.56;5069476;28;20059;-71
2022/09/21 01:25:33;;;;;;;;;;;;;;;10.09;62.34;96083.19;5086229;28;20566;-71
2022/09/21 01:28:19;;;;;;;;;;;;;;;10.05;62.22;96078.69;5069597;28;20020;-71
2022/09/21 01:30:46;;;;;;;;;;;;;;;9.98;63.25;96089.66;5070440;28;20031;-72
2022/09/21 01:33:18;;;;;;;;;;;;;;;9.95;63.46;96087.53;5075401;28;20031;-71
2022/09/21 01:35:48;;;;;;;;;;;;;;;9.92;63.02;96088.06;5070232;28;20021;-71
2022/09/21 01:38:25;;;;;;;;;;;;;;;9.89;63.55;96088.63;5068710;28;20083;-71
2022/09/21 01:40:52;;;;;;;;;;;;;;;9.89;63.40;96080.66;5071120;28;20016;-71
2022/09/21 01:43:24;;;;;;;;;;;;;;;9.86;63.06;96091.84;5090613;28;20016;-71
2022/09/21 01:45:51;;;;;;;;;;;;;;;9.83;63.42;96095.84;5075323;28;20011;-71
2022/09/21 01:48:17;;;;;;;;;;;;;;;9.80;63.46;96096.38;5089009;28;20021;-71
2022/09/21 01:50:45;;;;;;;;;;;;;;;9.77;62.91;96090.81;5088400;28;20010;-71
2022/09/21 01:53:15;;;;;;;;;;;;;;;9.74;62.98;96088.72;5070438;28;20451;-71
2022/09/21 01:55:48;;;;;;;;;;;;;;;9.74;63.12;96092.19;5085103;28;20016;-71
2022/09/21 01:58:17;;;;;;;;;;;;;;;9.73;63.70;96092.47;5088630;28;20476;-71
2022/09/21 02:00:45;;;;;;;;;;;;;;;9.73;63.31;96093.25;5069949;28;20775;-71
2022/09/21 02:03:18;;;;;;;;;;;;;;;9.70;63.58;96088.47;5070187;28;20414;-71
2022/09/21 02:05:44;;;;;;;;;;;;;;;9.68;63.45;96089.84;5069532;28;20031;-71
2022/09/21 02:08:09;;;;;;;;;;;;;;;9.70;63.60;96096.44;5070233;28;20516;-72
2022/09/21 02:10:47;;;;;;;;;;;;;;;9.73;63.79;96090.59;5072922;28;20060;-71
2022/09/21 02:13:15;;;;;;;;;;;;;;;9.70;63.56;96085.81;5068250;28;20009;-71
2022/09/21 02:15:43;;;;;;;;;;;;;;;9.68;63.66;96092.50;5087622;28;20004;-71
2022/09/21 02:18:19;;;;;;;;;;;;;;;9.66;63.25;96089.28;5090415;28;20515;-71
2022/09/21 02:20:47;;;;;;;;;;;;;;;9.65;63.56;96093.81;5085093;28;21423;-71
2022/09/21 02:23:21;;;;;;;;;;;;;;;9.62;63.52;96081.91;5088751;28;20019;-71
2022/09/21 02:25:52;;;;;;;;;;;;;;;9.57;63.50;96087.22;5075683;28;20018;-71
2022/09/21 02:28:25;;;;;;;;;;;;;;;9.61;63.75;96090.13;5087381;28;20048;-71
2022/09/21 02:30:56;;;;;;;;;;;;;;;9.63;63.44;96088.78;5080715;28;20013;-71
2022/09/21 02:33:25;;;;;;;;;;;;;;;9.60;62.71;96085.88;5072150;28;20020;-72
2022/09/21 02:36:07;;;;;;;;;;;;;;;9.54;63.02;96093.09;5088853;28;20104;-71
2022/09/21 02:38:45;;;;;;;;;;;;;;;9.51;63.06;96088.31;5083087;28;20043;-70
2022/09/21 02:41:20;;;;;;;;;;;;;;;9.48;62.84;96094.19;5068577;28;20048;-71
2022/09/21 02:43:49;;;;;;;;;;;;;;;9.46;62.68;96092.84;5085992;28;20005;-71
2022/09/21 02:46:18;;;;;;;;;;;;;;;9.43;62.91;96094.19;5079053;28;20014;-71
2022/09/21 02:48:48;;;;;;;;;;;;;;;9.41;63.20;96092.88;5069355;28;20099;-71
2022/09/21 02:51:20;;;;;;;;;;;;;;;9.37;63.23;96096.09;5075799;28;20603;-71
2022/09/21 02:53:48;;;;;;;;;;;;;;;9.35;63.38;96092.09;5084850;28;20013;-70
2022/09/21 02:56:14;;;;;;;;;;;;;;;9.36;63.49;96099.78;5068487;28;20095;-71
2022/09/21 02:58:42;;;;;;;;;;;;;;;9.39;63.19;96101.13;5079004;28;20036;-71
2022/09/21 03:01:10;;;;;;;;;;;;;;;9.37;63.49;96090.78;5076166;28;20522;-71
2022/09/21 03:03:35;;;;;;;;;;;;;;;9.37;62.85;96097.94;5087513;28;20103;-72
2022/09/21 03:06:01;;;;;;;;;;;;;;;9.35;63.37;96097.41;5084649;28;20103;-71
2022/09/21 03:08:26;;;;;;;;;;;;;;;9.32;62.44;96098.75;5069986;28;20051;-70
2022/09/21 03:10:52;;;;;;;;;;;;;;;9.29;62.60;96096.63;5071602;28;20481;-71
2022/09/21 03:13:18;;;;;;;;;;;;;;;9.26;63.05;96093.72;5091136;28;20096;-69
2022/09/21 03:15:44;;;;;;;;;;;;;;;9.23;62.78;96096.94;5074752;28;20100;-71
2022/09/21 03:18:10;;;;;;;;;;;;;;;9.21;62.78;96096.41;5073164;28;20045;-69
2022/09/21 03:20:37;;;;;;;;;;;;;;;9.17;62.90;96098.81;5071841;28;20546;-70
2022/09/21 03:23:03;;;;;;;;;;;;;;;9.15;62.67;96095.63;5083853;28;20103;-71
2022/09/21 03:25:28;;;;;;;;;;;;;;;9.13;62.81;96094.31;5072841;28;20461;-71
2022/09/21 03:27:54;;;;;;;;;;;;;;;9.13;62.66;96095.13;5090915;28;20667;-71
2022/09/21 03:30:23;;;;;;;;;;;;;;;9.12;62.65;96098.84;5080258;28;20020;-71
2022/09/21 03:32:50;;;;;;;;;;;;;;;9.10;63.17;96100.94;5072973;28;20009;-71
2022/09/21 03:35:15;;;;;;;;;;;;;;;9.09;63.05;96102.81;5079947;28;20008;-70
2022/09/21 03:37:40;;;;;;;;;;;;;;;9.08;62.64;96103.09;5093217;28;20013;-70
2022/09/21 03:40:06;;;;;;;;;;;;;;;9.07;62.42;96104.16;5084006;28;20103;-71
2022/09/21 03:42:31;;;;;;;;;;;;;;;9.07;62.85;96101.50;5070835;28;20009;-71
2022/09/21 03:44:56;;;;;;;;;;;;;;;9.04;62.63;96092.22;5084363;28;20062;-70
2022/09/21 03:47:21;;;;;;;;;;;;;;;9.02;63.07;96098.88;5070712;28;20017;-70
2022/09/21 03:49:46;;;;;;;;;;;;;;;9.00;62.88;96099.13;5070229;28;20016;-70
2022/09/21 03:52:11;;;;;;;;;;;;;;;9.01;62.87;96097.28;5072252;28;20009;-71
2022/09/21 03:54:37;;;;;;;;;;;;;;;9.00;63.04;96093.81;5070581;28;20099;-70
2022/09/21 03:57:02;;;;;;;;;;;;;;;9.01;62.67;96099.94;5092863;28;20457;-71
2022/09/21 03:59:27;;;;;;;;;;;;;;;8.98;62.82;96098.59;5089386;28;20020;-71
2022/09/21 04:01:52;;;;;;;;;;;;;;;8.95;62.74;96101.78;5071897;28;20013;-70
2022/09/21 04:04:18;;;;;;;;;;;;;;;8.94;63.20;96104.72;5070871;28;20583;-70
2022/09/21 04:06:45;;;;;;;;;;;;;;;8.97;63.06;96104.19;5071448;28;20024;-70
2022/09/21 04:09:10;;;;;;;;;;;;;;;8.95;62.67;96101.78;5072155;28;20362;-70
2022/09/21 04:11:35;;;;;;;;;;;;;;;8.94;62.96;96102.06;5072235;28;20092;-70
2022/09/21 04:14:00;;;;;;;;;;;;;;;8.95;62.74;96106.31;5078163;28;20013;-71
2022/09/21 04:16:26;;;;;;;;;;;;;;;8.94;62.55;96110.03;5085570;28;20108;-71
2022/09/21 04:18:51;;;;;;;;;;;;;;;8.90;62.76;96108.97;5071419;28;20384;-71
2022/09/21 04:21:17;;;;;;;;;;;;;;;8.88;62.38;96111.91;5073834;28;20017;-70
2022/09/21 04:23:42;;;;;;;;;;;;;;;8.87;62.83;96109.53;5075916;28;20009;-71
2022/09/21 04:26:17;;;;;;;;;;;;;;;8.84;62.84;96111.63;5082248;28;20017;-70
2022/09/21 04:28:42;;;;;;;;;;;;;;;8.80;62.46;96105.28;5072116;28;20122;-70
2022/09/21 04:31:07;;;;;;;;;;;;;;;8.80;62.50;96109.78;5085957;28;20462;-70
2022/09/21 04:33:33;;;;;;;;;;;;;;;8.78;62.62;96110.06;5074574;28;20009;-70
2022/09/21 04:35:58;;;;;;;;;;;;;;;8.78;62.48;96110.06;5086472;28;20016;-71
2022/09/21 04:38:23;;;;;;;;;;;;;;;8.75;62.57;96113.25;5071258;28;20438;-71
2022/09/21 04:40:55;;;;;;;;;;;;;;;8.76;62.68;96117.50;5086830;28;20052;-72
2022/09/21 04:43:21;;;;;;;;;;;;;;;8.78;62.55;96117.22;5090801;28;20009;-71
2022/09/21 04:45:46;;;;;;;;;;;;;;;8.75;62.36;96117.75;5081508;28;20016;-70
2022/09/21 04:48:12;;;;;;;;;;;;;;;8.73;62.84;96128.63;5070047;28;20010;-70
2022/09/21 04:50:37;;;;;;;;;;;;;;;8.72;62.68;96124.41;5071014;28;20013;-70
2022/09/21 04:53:02;;;;;;;;;;;;;;;8.77;62.71;96129.69;5071689;28;20067;-70
2022/09/21 04:55:27;;;;;;;;;;;;;;;8.79;62.68;96129.41;5085354;28;20138;-71
2022/09/21 04:57:52;;;;;;;;;;;;;;;8.80;62.31;96134.47;5090235;28;20008;-75
2022/09/21 05:00:18;;;;;;;;;;;;;;;8.77;62.12;96135.00;5083687;28;20013;-69
2022/09/21 05:02:43;;;;;;;;;;;;;;;8.75;62.07;96136.31;5070724;28;20013;-72
2022/09/21 05:05:09;;;;;;;;;;;;;;;8.75;62.13;96136.31;5070858;28;20024;-71
2022/09/21 05:07:34;;;;;;;;;;;;;;;8.77;62.06;96142.16;5085647;28;20592;-69
2022/09/21 05:10:02;;;;;;;;;;;;;;;8.76;61.84;96138.72;5087148;28;20013;-71
2022/09/21 05:12:28;;;;;;;;;;;;;;;8.75;62.25;96145.09;5074287;28;20021;-71
2022/09/21 05:14:54;;;;;;;;;;;;;;;8.76;62.05;96146.69;5069576;28;20009;-69
2022/09/21 05:17:21;;;;;;;;;;;;;;;8.77;61.97;96153.56;5087531;28;20065;-71
2022/09/21 05:19:46;;;;;;;;;;;;;;;8.83;61.90;96154.34;5081265;28;20014;-72
2022/09/21 05:22:12;;;;;;;;;;;;;;;8.87;62.00;96152.75;5068434;28;20159;-73
2022/09/21 05:24:37;;;;;;;;;;;;;;;8.88;61.37;96150.91;5071506;28;20024;-69
2022/09/21 05:27:03;;;;;;;;;;;;;;;8.92;61.78;96149.31;5097327;28;20067;-70
2022/09/21 05:29:28;;;;;;;;;;;;;;;8.97;61.55;96150.09;5081342;28;20013;-70
2022/09/21 05:31:53;;;;;;;;;;;;;;;9.02;61.96;96159.91;5083415;28;20190;-69
2022/09/21 05:34:34;;;;;;;;;;;;;;;9.08;61.96;96158.84;5069948;28;20006;-71
2022/09/21 05:37:09;;;;;;;;;;;;;;;9.12;61.78;96151.94;5068571;28;20013;-74
2022/09/21 05:39:34;;;;;;;;;;;;;;;9.17;61.62;96149.25;5073093;28;20059;-73
2022/09/21 05:42:00;;;;;;;;;;;;;;;9.22;61.61;96148.44;5088518;28;20040;-71
2022/09/21 05:44:25;;;;;;;;;;;;;;;9.27;61.36;96148.44;5086774;28;20013;-72
2022/09/21 05:46:56;;;;;;;;;;;;;;;9.30;61.84;96161.16;5088390;28;20021;-75
2022/09/21 05:49:25;;;;;;;;;;;;;;;9.32;61.61;96151.88;5087892;28;20012;-70
2022/09/21 05:51:57;;;;;;;;;;;;;;;9.43;61.91;96159.78;5088757;28;20009;-74
2022/09/21 05:54:32;;;;;;;;;;;;;;;9.51;61.96;96153.91;5084962;28;20013;-69
2022/09/21 05:57:04;;;;;;;;;;;;;;;9.63;61.60;96159.72;5100391;28;20064;-72
2022/09/21 05:59:35;;;;;;;;;;;;;;;9.69;61.99;96155.97;5099938;28;20017;-72
2022/09/21 06:02:07;;;;;;;;;;;;;;;9.78;61.60;96151.69;5093672;28;20537;-74
2022/09/21 06:04:34;;;;;;;;;;;;;;;9.85;61.43;96154.81;5090456;28;20487;-72
2022/09/21 06:06:59;;;;;;;;;;;;;;;9.97;62.22;96159.00;5082518;28;20014;-71
2022/09/21 06:09:25;;;;;;;;;;;;;;;10.09;61.50;96157.63;5072514;28;20551;-71
2022/09/21 06:11:50;;;;;;;;;;;;;;;10.19;61.64;96151.44;5090970;28;20060;-70
2022/09/21 06:14:23;;;;;;;;;;;;;;;10.29;61.57;96161.25;5069805;28;20119;-68
2022/09/21 06:16:48;;;;;;;;;;;;;;;10.39;61.29;96163.84;5070634;28;20014;-67
2022/09/21 06:19:13;;;;;;;;;;;;;;;10.51;61.42;96166.13;5068940;28;20009;-67
2022/09/21 06:21:38;;;;;;;;;;;;;;;10.63;61.62;96164.69;5070373;28;20020;-69
2022/09/21 06:24:04;;;;;;;;;;;;;;;10.75;62.09;96168.84;5079697;28;20020;-67
2022/09/21 06:26:29;;;;;;;;;;;;;;;10.87;61.94;96166.63;5070925;28;20017;-68
2022/09/21 06:28:54;;;;;;;;;;;;;;;10.96;61.17;96170.28;5068471;28;20013;-68
2022/09/21 06:31:20;;;;;;;;;;;;;;;11.01;61.29;96174.75;5083315;28;20030;-68
2022/09/21 06:33:45;;;;;;;;;;;;;;;11.17;60.95;96169.00;5089935;28;20060;-68
2022/09/21 06:36:10;;;;;;;;;;;;;;;11.30;61.25;96170.19;5090568;28;20012;-68
2022/09/21 06:38:35;;;;;;;;;;;;;;;11.41;61.00;96171.69;5088742;28;20025;-69
2022/09/21 06:41:01;;;;;;;;;;;;;;;11.53;60.44;96173.16;5088627;28;20009;-68
2022/09/21 06:43:27;;;;;;;;;;;;;;;11.61;59.95;96175.16;5076649;28;20014;-69
2022/09/21 06:45:56;;;;;;;;;;;;;;;11.72;60.53;96174.00;5074278;28;20009;-69
2022/09/21 06:48:22;;;;;;;;;;;;;;;11.84;60.20;96169.06;5085949;28;20020;-69
2022/09/21 06:50:48;;;;;;;;;;;;;;;11.96;60.61;96177.41;5093691;28;20001;-69
2022/09/21 06:53:13;;;;;;;;;;;;;;;12.05;60.36;96179.47;5092709;28;20008;-70
2022/09/21 06:55:39;;;;;;;;;;;;;;;12.16;60.11;96178.22;5085357;28;20100;-69
2022/09/21 06:58:04;;;;;;;;;;;;;;;12.32;60.32;96181.47;5105971;28;20028;-70
2022/09/21 07:00:30;;;;;;;;;;;;;;;12.22;60.09;96174.41;5075255;28;20013;-70
2022/09/21 07:02:55;;;;;;;;;;;;;;;12.39;60.15;96172.03;5093665;28;20544;-69
2022/09/21 07:05:20;;;;;;;;;;;;;;;12.26;59.95;96172.75;5077849;28;20024;-69
2022/09/21 07:07:45;;;;;;;;;;;;;;;12.53;59.65;96174.75;5073201;28;20079;-70
2022/09/21 07:10:10;;;;;;;;;;;;;;;12.46;59.65;96175.13;5073209;28;20096;-70
2022/09/21 07:12:36;;;;;;;;;;;;;;;12.71;59.64;96181.16;5072992;28;20009;-71
2022/09/21 07:15:01;;;;;;;;;;;;;;;12.77;59.17;96173.84;5072975;28;20061;-70
2022/09/21 07:17:30;;;;;;;;;;;;;;;13.01;58.75;96171.84;5091354;28;20020;-69
2022/09/21 07:19:55;;;;;;;;;;;;;;;13.11;58.49;96165.53;5091408;28;20023;-71
2022/09/21 07:22:21;;;;;;;;;;;;;;;13.22;58.43;96169.63;5093262;28;20009;-71
2022/09/21 07:24:46;;;;;;;;;;;;;;;13.08;58.33;96176.81;5093518;28;20012;-71
2022/09/21 07:27:11;;;;;;;;;;;;;;;13.29;57.57;96177.25;5080734;28;20022;-71
2022/09/21 07:29:36;;;;;;;;;;;;;;;13.32;57.29;96171.34;5105043;28;20010;-71
2022/09/21 07:32:02;;;;;;;;;;;;;;;13.22;57.20;96175.78;5073901;28;20013;-71
2022/09/21 07:34:27;;;;;;;;;;;;;;;13.53;57.11;96175.19;5072873;28;20005;-71
2022/09/21 07:36:52;;;;;;;;;;;;;;;13.74;56.42;96176.38;5072936;28;20015;-71
2022/09/21 07:39:18;;;;;;;;;;;;;;;13.90;56.08;96179.53;5084096;28;20012;-71
2022/09/21 07:41:43;;;;;;;;;;;;;;;13.45;56.10;96181.22;5074415;28;20492;-71
2022/09/21 07:44:08;;;;;;;;;;;;;;;13.72;55.10;96178.56;5071314;28;20010;-71
2022/09/21 07:46:34;;;;;;;;;;;;;;;13.85;54.50;96182.31;5071799;28;20017;-72
2022/09/21 07:49:00;;;;;;;;;;;;;;;13.93;54.48;96178.94;5104686;28;20561;-71
2022/09/21 07:51:25;;;;;;;;;;;;;;;13.99;53.93;96182.28;5071244;28;20088;-71
2022/09/21 07:53:57;;;;;;;;;;;;;;;14.15;54.16;96185.44;5072112;28;20047;-70
2022/09/21 07:56:22;;;;;;;;;;;;;;;14.27;53.45;96178.44;5072179;28;20112;-71
2022/09/21 07:59:06;;;;;;;;;;;;;;;14.07;53.30;96184.25;5070765;28;20508;-71
2022/09/21 08:01:35;;;;;;;;;;;;;;;14.43;53.55;96178.09;5072836;28;20013;-70
2022/09/21 08:04:02;;;;;;;;;;;;;;;14.55;53.05;96187.22;5080998;28;20062;-71
2022/09/21 08:06:29;;;;;;;;;;;;;;;14.50;52.68;96184.66;5092354;28;20015;-70
2022/09/21 08:08:54;;;;;;;;;;;;;;;14.73;52.42;96182.00;5078479;28;20473;-72
2022/09/21 08:11:21;;;;;;;;;;;;;;;14.84;51.93;96194.03;5072325;28;20032;-72
2022/09/21 08:13:47;;;;;;;;;;;;;;;14.79;51.80;96186.13;5071872;28;20056;-72
2022/09/21 08:16:12;;;;;;;;;;;;;;;14.89;51.50;96185.09;5071950;28;20001;-71
2022/09/21 08:18:40;;;;;;;;;;;;;;;14.88;51.11;96186.97;5082417;28;20038;-71
2022/09/21 08:21:06;;;;;;;;;;;;;;;14.74;51.56;96183.56;5090611;28;20009;-72
2022/09/21 08:23:32;;;;;;;;;;;;;;;13.93;51.79;96181.63;5092223;28;20026;-70
2022/09/21 08:25:59;;;;;;;;;;;;;;;14.07;51.95;96186.91;5090541;28;20016;-71
2022/09/21 08:28:24;;;;;;;;;;;;;;;14.59;50.52;96181.25;5070705;28;20035;-71
2022/09/21 08:30:49;;;;;;;;;;;;;;;14.98;50.59;96185.94;5070262;28;20465;-71
2022/09/21 08:33:14;;;;;;;;;;;;;;;14.89;49.77;96179.72;5072506;28;20538;-71
2022/09/21 08:35:39;;;;;;;;;;;;;;;15.12;49.90;96192.03;5071883;28;20009;-72
2022/09/21 08:38:05;;;;;;;;;;;;;;;14.80;48.84;96187.72;5071837;28;20608;-71
2022/09/21 08:40:31;;;;;;;;;;;;;;;15.32;49.01;96188.03;5071150;28;20017;-73
2022/09/21 08:43:06;;;;;;;;;;;;;;;15.52;48.39;96181.34;5104180;28;20028;-72
2022/09/21 08:45:42;;;;;;;;;;;;;;;15.21;48.65;96192.88;5070441;28;20357;-72
2022/09/21 08:48:17;;;;;;;;;;;;;;;15.34;47.66;96194.66;5071663;28;20028;-72
2022/09/21 08:50:42;;;;;;;;;;;;;;;15.77;47.24;96185.25;5071341;28;20005;-72
2022/09/21 08:53:17;;;;;;;;;;;;;;;15.93;46.92;96190.97;5070187;28;20356;-71
2022/09/21 08:55:42;;;;;;;;;;;;;;;16.16;45.74;96186.25;5070440;28;20124;-72
2022/09/21 08:58:19;;;;;;;;;;;;;;;16.13;45.91;96186.91;5069768;28;20557;-71
2022/09/21 09:00:44;;;;;;;;;;;;;;;16.41;45.81;96185.50;5069812;28;20012;-72
2022/09/21 09:03:18;;;;;;;;;;;;;;;15.79;45.19;96180.34;5079469;28;20059;-72
2022/09/21 09:05:44;;;;;;;;;;;;;;;15.31;45.46;96189.91;5089426;28;20012;-71
2022/09/21 09:08:09;;;;;;;;;;;;;;;15.68;45.59;96182.53;5091291;28;20017;-72
2022/09/21 09:10:37;;;;;;;;;;;;;;;15.64;45.65;96181.56;5076603;28;20108;-73
2022/09/21 09:13:02;;;;;;;;;;;;;;;15.80;45.71;96179.25;5071262;28;20011;-70
2022/09/21 09:15:35;;;;;;;;;;;;;;;16.66;43.88;96175.09;5069650;28;20444;-70
2022/09/21 09:18:19;;;;;;;;;;;;;;;17.04;42.84;96176.00;5073990;28;20477;-71
2022/09/21 09:20:48;;;;;;;;;;;;;;;16.42;41.52;96180.91;5091471;28;20005;-70
2022/09/21 09:23:27;;;;;;;;;;;;;;;16.92;40.98;96175.88;5091527;28;20158;-71
2022/09/21 09:25:55;;;;;;;;;;;;;;;17.44;40.27;96174.94;5089646;28;20023;-72
2022/09/21 09:28:29;;;;;;;;;;;;;;;17.78;40.01;96174.81;5078373;28;20533;-72
2022/09/21 09:31:16;;;;;;;;;;;;;;;18.71;39.03;96178.34;5070642;28;20419;-72
2022/09/21 09:33:51;;;;;;;;;;;;;;;18.83;37.96;96175.69;5070367;28;20477;-73
2022/09/21 09:36:17;;;;;;;;;;;;;;;19.26;36.87;96174.47;5070692;28;20082;-73
2022/09/21 09:38:55;;;;;;;;;;;;;;;18.05;37.68;96178.94;5102879;28;20020;-72
2022/09/21 09:41:26;;;;;;;;;;;;;;;17.40;40.29;96172.91;5070282;28;20017;-73
2022/09/21 09:44:10;;;;;;;;;;;;;;;17.61;40.19;96172.19;5070632;28;20006;-72
2022/09/21 09:46:54;;;;;;;;;;;;;;;17.65;40.01;96157.75;5070201;28;20444;-73
2022/09/21 09:49:19;;;;;;;;;;;;;;;18.57;39.15;96161.63;5087891;28;20056;-71
2022/09/21 09:51:45;;;;;;;;;;;;;;;18.53;38.42;96161.50;5090628;28;20048;-73
2022/09/21 09:54:13;;;;;;;;;;;;;;;18.78;37.21;96157.00;5089535;28;20064;-73
2022/09/21 09:56:38;;;;;;;;;;;;;;;19.02;37.71;96153.63;5089178;28;20016;-73
2022/09/21 09:59:07;;;;;;;;;;;;;;;18.86;36.54;96163.47;5071986;28;20017;-73
2022/09/21 10:01:42;;;;;;;;;;;;;;;18.26;36.07;96157.41;5068984;28;20096;-73
2022/09/21 10:04:09;;;;;;;;;;;;;;;18.21;36.86;96148.75;5070563;28;20013;-72
2022/09/21 10:06:35;;;;;;;;;;;;;;;18.12;37.54;96154.22;5068720;28;20031;-73
2022/09/21 10:09:00;;;;;;;;;;;;;;;17.84;38.51;96141.22;5068706;28;20010;-82
2022/09/21 10:11:34;;;;;;;;;;;;;;;17.83;38.61;96142.34;5071348;28;20821;-73
2022/09/21 10:14:09;;;;;;;;;;;;;;;17.12;39.25;96142.94;5068616;28;20009;-73
2022/09/21 10:16:39;;;;;;;;;;;;;;;17.47;38.83;96142.03;5069900;28;20009;-73
2022/09/21 10:19:04;;;;;;;;;;;;;;;17.65;39.22;96138.91;5074213;28;20005;-72
2022/09/21 10:21:35;;;;;;;;;;;;;;;17.75;38.50;96137.00;5089010;28;20024;-74
2022/09/21 10:24:01;;;;;;;;;;;;;;;17.81;38.35;96135.69;5089138;28;20016;-73
2022/09/21 10:26:43;;;;;;;;;;;;;;;17.87;38.72;96129.03;5088578;28;20021;-74
2022/09/21 10:29:21;;;;;;;;;;;;;;;18.38;37.79;96127.88;5083416;28;22681;-74
2022/09/21 10:31:56;;;;;;;;;;;;;;;17.86;38.74;96130.13;5068390;28;20013;-74
2022/09/21 10:34:22;;;;;;;;;;;;;;;18.05;38.18;96118.94;5070149;28;20024;-73
2022/09/21 10:36:53;;;;;;;;;;;;;;;17.41;38.94;96123.38;5069594;28;20009;-73
2022/09/21 10:39:18;;;;;;;;;;;;;;;17.51;39.23;96127.63;5069047;28;20005;-73
2022/09/21 10:41:50;;;;;;;;;;;;;;;17.63;39.10;96118.84;5079948;28;20066;-74
2022/09/21 10:44:17;;;;;;;;;;;;;;;17.20;39.79;96119.84;5089656;28;20005;-73
2022/09/21 10:46:43;;;;;;;;;;;;;;;16.47;40.50;96119.00;5089860;28;20036;-74
2022/09/21 10:49:18;;;;;;;;;;;;;;;16.22;41.86;96117.91;5079530;28;20377;-73
2022/09/21 10:51:45;;;;;;;;;;;;;;;17.10;40.82;96112.91;5081510;28;20020;-74
2022/09/21 10:54:15;;;;;;;;;;;;;;;17.64;39.81;96115.81;5088617;28;20012;-74
2022/09/21 10:56:49;;;;;;;;;;;;;;;17.86;39.75;96109.41;5088477;28;20013;-75
2022/09/21 10:59:17;;;;;;;;;;;;;;;18.37;39.01;96114.72;5088398;28;20012;-74
2022/09/21 11:01:44;;;;;;;;;;;;;;;18.72;38.54;96109.84;5089834;28;20035;-73
2022/09/21 11:04:33;;;;;;;;;;;;;;;19.00;37.01;96106.56;5081278;28;20055;-74
2022/09/21 11:07:12;;;;;;;;;;;;;;;18.91;36.50;96109.34;5069205;28;20017;-73
2022/09/21 11:09:42;;;;;;;;;;;;;;;18.22;38.66;96115.31;5067834;28;20120;-74
2022/09/21 11:12:16;;;;;;;;;;;;;;;18.68;37.07;96108.91;5073228;28;20016;-73
2022/09/21 11:14:51;;;;;;;;;;;;;;;18.25;38.21;96110.06;5089899;28;20073;-73
2022/09/21 11:17:26;;;;;;;;;;;;;;;17.71;38.99;96107.25;5089716;28;20084;-74
2022/09/21 11:19:54;;;;;;;;;;;;;;;17.94;38.78;96105.06;5082349;28;20492;-74
2022/09/21 11:22:26;;;;;;;;;;;;;;;17.46;40.05;96097.41;5069491;28;20029;-74
2022/09/21 11:24:59;;;;;;;;;;;;;;;17.19;41.01;96098.63;5069870;28;20021;-74
2022/09/21 11:27:29;;;;;;;;;;;;;;;17.11;40.73;96103.72;5069518;28;20078;-74
2022/09/21 11:30:15;;;;;;;;;;;;;;;17.36;40.57;96093.97;5080613;28;20136;-73
2022/09/21 11:32:51;;;;;;;;;;;;;;;17.39;40.37;96093.31;5092100;28;20461;-74
2022/09/21 11:35:24;;;;;;;;;;;;;;;17.11;40.48;96095.66;5078669;28;20066;-74
2022/09/21 11:38:19;;;;;;;;;;;;;;;16.73;40.94;96092.13;5071484;28;20548;-74
2022/09/21 11:40:47;;;;;;;;;;;;;;;17.05;41.44;96086.19;5062211;28;20040;-74
2022/09/21 11:43:33;;;;;;;;;;;;;;;17.69;39.86;96087.94;5072879;28;20071;-74
2022/09/21 11:46:17;;;;;;;;;;;;;;;18.37;37.84;96091.25;5072683;28;20005;-75
2022/09/21 11:49:11;;;;;;;;;;;;;;;18.51;37.19;96072.13;5072498;28;20056;-74
2022/09/21 11:51:37;;;;;;;;;;;;;;;17.47;39.65;96080.16;5063378;28;20013;-72
2022/09/21 11:54:19;;;;;;;;;;;;;;;17.48;38.86;96079.81;5071202;28;20009;-73
2022/09/21 11:56:47;;;;;;;;;;;;;;;17.50;38.77;96072.22;5071466;28;20489;-74
2022/09/21 11:59:23;;;;;;;;;;;;;;;18.16;37.32;96071.63;5073312;28;20074;-74
2022/09/21 12:01:55;;;;;;;;;;;;;;;18.98;36.37;96063.72;5092182;28;20011;-73
2022/09/21 12:04:32;;;;;;;;;;;;;;;19.09;35.63;96064.06;5090598;28;20009;-74
2022/09/21 12:07:03;;;;;;;;;;;;;;;19.73;33.68;96055.34;5084603;28;20637;-74
2022/09/21 12:09:50;;;;;;;;;;;;;;;18.88;33.80;96069.56;5092476;28;20010;-74
2022/09/21 12:12:20;;;;;;;;;;;;;;;19.18;34.46;96060.16;5091690;28;20009;-73
2022/09/21 12:14:55;;;;;;;;;;;;;;;19.67;34.23;96046.69;5091370;28;20073;-74
2022/09/21 12:17:33;;;;;;;;;;;;;;;19.17;35.00;96055.88;5092534;28;20008;-74
2022/09/21 12:20:13;;;;;;;;;;;;;;;18.91;34.83;96056.19;5086815;28;20431;-73
2022/09/21 12:22:41;;;;;;;;;;;;;;;19.58;33.78;96048.69;5087925;28;20063;-72
2022/09/21 12:25:12;;;;;;;;;;;;;;;19.76;32.94;96046.56;5070952;28;20355;-74
2022/09/21 12:27:56;;;;;;;;;;;;;;;18.96;33.86;96053.28;5070571;28;20028;-73
2022/09/21 12:30:22;;;;;;;;;;;;;;;19.06;34.41;96051.28;5069980;28;20021;-73
2022/09/21 12:32:52;;;;;;;;;;;;;;;19.20;33.96;96046.34;5072003;28;20013;-73
2022/09/21 12:35:34;;;;;;;;;;;;;;;19.20;34.34;96055.22;5072371;28;20830;-73
2022/09/21 12:38:03;;;;;;;;;;;;;;;19.05;34.39;96047.81;5071859;28;20006;-73
2022/09/21 12:40:36;;;;;;;;;;;;;;;19.45;34.27;96036.34;5071028;28;20555;-73
2022/09/21 12:43:20;;;;;;;;;;;;;;;19.38;32.97;96046.91;5092088;28;20014;-73
2022/09/21 12:46:06;;;;;;;;;;;;;;;19.45;32.62;96036.34;5071846;28;20005;-73
2022/09/21 12:48:32;;;;;;;;;;;;;;;19.55;32.94;96037.78;5066613;28;20017;-72
2022/09/21 12:51:17;;;;;;;;;;;;;;;19.90;32.57;96032.69;5072107;28;20009;-73
2022/09/21 12:53:46;;;;;;;;;;;;;;;19.90;32.26;96032.69;5071569;28;20005;-73
2022/09/21 12:56:21;;;;;;;;;;;;;;;20.65;31.20;96029.38;5071421;28;20009;-73
2022/09/21 12:58:55;;;;;;;;;;;;;;;20.80;30.18;96030.53;5069666;28;20008;-73
2022/09/21 13:01:32;;;;;;;;;;;;;;;20.61;30.59;96023.88;5080012;28;20015;-73